• Join FlightAware (Why Join?)
  • Login
  • US Flag 
07:35PM EDT


 

Airport Tracker/Info


-or-


 

Live Flight TrackerFlight Track Log ✈ WEW1540 ✈ 06-May-2013 ✈ CYQR - CYYN

Flight Track Log - Related Links

Times and Time Zones

All times are in EDT time to prevent confusion due to time zone crossing. See the WEW1540 flight status page for this flight to view local times or setup timezone preferences in your user account.

Time Position Orientation Groundspeed Altitude Reporting Facility
EDT Latitude Longitude Course Direction KTS MPH feet Rate Location/Type
08:22AM 50.4000 -104.7167 265° West 100 115 2,700  Level Winnipeg Center
08:23AM 50.4167 -104.7500 308° West 90 104 3,300 420 Climbing Winnipeg Center
08:24AM 50.4167 -104.8000 270° West 100 115 3,600 180 Climbing Winnipeg Center
08:26AM 50.4167 -104.8828 270° West  Level FlightAware Approximate
08:26AM 50.4167 -104.8833 270° West 100 115 3,900  Level Winnipeg Center
08:28AM 50.4093 -105.1009 265° West  Level FlightAware Approximate
08:28AM 50.4167 -104.9661 270° West  Level FlightAware Approximate
08:28AM 50.4167 -104.9833 270° West 110 127 3,900  Level Winnipeg Center
08:29AM 50.4167 -105.0333 270° West 110 127 3,900  Level Winnipeg Center
08:30AM 50.4167 -105.0667 270° West 110 127 3,900  Level Winnipeg Center
08:32AM 50.4099 -105.1487 263° West  Level FlightAware Approximate
08:32AM 50.4833 -105.0833 263° West 130 150 3,900  Level Winnipeg Center
08:33AM 50.5167 -105.0500 32° Northeast 140 161 3,900  Level Winnipeg Center
08:34AM 50.5500 -105.0333 18° North 140 161 3,900  Level Winnipeg Center
08:35AM 50.5833 -105.0167 18° North 140 161 3,900  Level Winnipeg Center
08:36AM 50.5667 -104.9333 107° East 150 173 3,900 -240 Level Winnipeg Center
08:38AM 50.5581 -105.0030 259° West  Level FlightAware Approximate
08:38AM 50.5333 -104.8500 259° West 140 161 3,200  Level Winnipeg Center
08:40AM 50.5297 -104.9206 265° West  Level FlightAware Approximate
08:40AM 50.4833 -104.7833 265° West 120 138 2,900  Level Winnipeg Center
08:41AM 50.4500 -104.7333 136° Southeast 130 150 2,700 -360 Descending Winnipeg Center
08:42AM 50.4333 -104.7000 128° Southeast 120 138 2,200 -540 Descending Winnipeg Center
08:44AM 50.4235 -104.7690 257° West  Level FlightAware Approximate
08:51AM 50.5048 -104.9471 North  Level FlightAware Approximate
08:52AM 50.5396 -104.9394 North  Level FlightAware Approximate
08:53AM 50.5652 -104.9453 259° West  Level FlightAware Approximate
08:54AM 50.5585 -104.9996 259° West  Level FlightAware Approximate
08:55AM 50.5518 -105.0538 259° West  Level FlightAware Approximate
08:56AM 50.5451 -105.1081 259° West  Level FlightAware Approximate
08:57AM 50.5384 -105.1623 259° West  Level FlightAware Approximate
08:58AM 50.5316 -105.2165 259° West  Level FlightAware Approximate
08:59AM 50.5248 -105.2707 259° West  Level FlightAware Approximate
09:00AM 50.5180 -105.3249 259° West  Level FlightAware Approximate
09:01AM 50.5111 -105.3790 259° West  Level FlightAware Approximate
09:02AM 50.5043 -105.4332 259° West  Level FlightAware Approximate
09:03AM 50.4980 -105.4874 261° West  Level FlightAware Approximate
09:04AM 50.4925 -105.5420 261° West  Level FlightAware Approximate
09:05AM 50.4871 -105.5965 261° West  Level FlightAware Approximate
09:06AM 50.4817 -105.6510 261° West  Level FlightAware Approximate
09:07AM 50.4762 -105.7055 261° West  Level FlightAware Approximate
09:08AM 50.4707 -105.7600 261° West  Level FlightAware Approximate
09:09AM 50.4651 -105.8144 261° West  Level FlightAware Approximate
09:10AM 50.4596 -105.8689 261° West  Level FlightAware Approximate
09:11AM 50.4540 -105.9233 261° West  Level FlightAware Approximate
09:12AM 50.4484 -105.9778 261° West  Level FlightAware Approximate
09:13AM 50.4427 -106.0322 261° West  Level FlightAware Approximate
09:14AM 50.4371 -106.0866 261° West  Level FlightAware Approximate
09:15AM 50.4314 -106.1410 261° West  Level FlightAware Approximate
09:16AM 50.4257 -106.1954 261° West  Level FlightAware Approximate
09:17AM 50.4199 -106.2497 261° West  Level FlightAware Approximate
09:18AM 50.4142 -106.3041 261° West  Level FlightAware Approximate
09:19AM 50.4084 -106.3584 261° West  Level FlightAware Approximate
09:20AM 50.4026 -106.4127 260° West  Level FlightAware Approximate
09:21AM 50.3967 -106.4670 260° West  Level FlightAware Approximate
09:22AM 50.3909 -106.5213 260° West  Level FlightAware Approximate
09:23AM 50.3850 -106.5756 260° West  Level FlightAware Approximate
09:24AM 50.3791 -106.6299 260° West  Level FlightAware Approximate
09:25AM 50.3731 -106.6842 260° West  Level FlightAware Approximate
09:26AM 50.3672 -106.7384 260° West  Level FlightAware Approximate
09:27AM 50.3612 -106.7926 260° West  Level FlightAware Approximate
09:28AM 50.3552 -106.8469 260° West  Level FlightAware Approximate
09:29AM 50.3491 -106.9011 260° West  Level FlightAware Approximate
09:30AM 50.3431 -106.9553 260° West  Level FlightAware Approximate
09:31AM 50.3370 -107.0094 260° West  Level FlightAware Approximate
09:32AM 50.3308 -107.0636 260° West  Level FlightAware Approximate
09:33AM 50.3247 -107.1178 260° West  Level FlightAware Approximate
09:34AM 50.3186 -107.1719 260° West  Level FlightAware Approximate
09:35AM 50.3124 -107.2260 260° West  Level FlightAware Approximate
09:36AM 50.3061 -107.2801 260° West  Level FlightAware Approximate
09:37AM 50.3000 -107.3342 270° West  Level FlightAware Approximate